LDN weather

Lamidanda Airport
Lamidanda, Sagarmatha, Nepal

Public forecast

Using degrees Celsius for public forecast. Weather courtesy of forecast.io.

METAR (pilot weather report)

Closest report is Tribhuvan International Airport, 74.7 nm (138.4 km) WNW. Retrieved 2019/07/23 16:20 UTC (22 minutes ago):

VNKT 231620Z 21005KT 7000 FEW015 SCT030 BKN100 23/21 Q1010 NOSIG

TAF (pilot weather forecast)

Forecast is more than 12 hours old.

Closest forecast is Tribhuvan International Airport, 74.7 nm (138.4 km) WNW. Retrieved 2019/07/21 06:33 UTC (2 days ago):

TAF TAF VNKT 210500Z 2106/2206 28004KT 7000 FEW010 SCT030 BKN100 BECMG 2107/2109 20008KT 8000 FEW015 SCT030 BKN100 PROB40 2108/2114 VRB07KT 4000 -TSRA/SHRA FEW025CB OVC090 BECMG 2114/2115 14003KT 6000 FEW015 SCT025 BKN100 BECMG 2200/2202 00000KT 4000 -RA/BR FEW010 SCT025 BKN100 BECMG 2204/2205 12004KT 6000 FEW015 SCT025 BKN100